createdAt,value
2023-01-05T00:00:56.148Z,2.00
2023-01-05T00:03:23.580Z,2.10
2023-01-05T00:05:50.927Z,1.93
2023-01-05T00:08:18.301Z,1.60
2023-01-05T00:11:03.505Z,2.50
2023-01-05T00:13:49.511Z,2.33
2023-01-05T00:16:45.791Z,2.37
2023-01-05T00:19:30.945Z,2.37
2023-01-05T00:22:16.294Z,2.57
2023-01-05T00:24:43.641Z,2.20
2023-01-05T00:27:11.015Z,1.77
2023-01-05T00:29:39.723Z,2.40
2023-01-05T00:32:07.124Z,2.20
2023-01-05T00:34:34.534Z,2.93
2023-01-05T00:37:01.838Z,2.60
2023-01-05T00:39:29.179Z,2.27
2023-01-05T00:41:56.524Z,2.33
2023-01-05T00:44:23.862Z,2.33
2023-01-05T00:46:52.540Z,2.57
2023-01-05T00:49:19.872Z,2.40
2023-01-05T00:51:47.211Z,2.60
2023-01-05T00:54:14.604Z,2.43
2023-01-05T00:56:42.009Z,2.60
2023-01-05T00:59:09.343Z,3.17
2023-01-05T01:01:36.802Z,2.77
2023-01-05T01:04:05.645Z,2.63
2023-01-05T01:06:33.048Z,2.63
2023-01-05T01:09:00.401Z,2.53
2023-01-05T01:11:27.714Z,2.40
2023-01-05T01:13:55.999Z,2.73
2023-01-05T01:16:23.548Z,2.40
2023-01-05T01:18:51.298Z,2.90
2023-01-05T01:21:19.954Z,2.73
2023-01-05T01:23:47.301Z,2.77
2023-01-05T01:26:14.717Z,2.70
2023-01-05T01:28:42.066Z,3.03
2023-01-05T01:31:09.483Z,2.47
2023-01-05T01:33:39.581Z,2.60
2023-01-05T01:36:07.724Z,2.80
2023-01-05T01:38:36.820Z,2.30
2023-01-05T01:41:04.237Z,2.23
2023-01-05T01:43:42.230Z,3.03
2023-01-05T01:46:09.768Z,2.00
2023-01-05T01:48:37.561Z,2.50
2023-01-05T01:51:08.369Z,3.00
2023-01-05T01:53:39.212Z,3.33
2023-01-05T01:56:08.777Z,2.50
2023-01-05T01:58:36.312Z,2.80
2023-01-05T02:01:03.990Z,3.27
2023-01-05T02:03:32.200Z,3.10
2023-01-05T02:05:59.795Z,3.30
2023-01-05T02:08:31.527Z,2.90
2023-01-05T02:11:06.341Z,3.40
2023-01-05T02:13:43.743Z,3.53
2023-01-05T02:16:19.615Z,3.30
2023-01-05T02:18:55.243Z,3.83
2023-01-05T02:21:25.724Z,3.97
2023-01-05T02:24:11.862Z,4.00
2023-01-05T02:26:57.817Z,3.50
2023-01-05T02:29:40.148Z,3.67
2023-01-05T02:32:12.151Z,3.60
2023-01-05T02:34:43.151Z,3.90
2023-01-05T02:37:12.856Z,3.00
2023-01-05T02:39:42.615Z,3.13
2023-01-05T02:42:12.976Z,3.50
2023-01-05T02:44:40.543Z,3.50
2023-01-05T02:47:09.546Z,3.37
2023-01-05T02:49:40.373Z,3.47
2023-01-05T02:52:08.712Z,3.13
2023-01-05T02:54:39.234Z,4.17
2023-01-05T02:57:09.558Z,3.73
2023-01-05T02:59:38.751Z,3.27
2023-01-05T03:02:07.531Z,3.27
2023-01-05T03:04:39.763Z,2.83
2023-01-05T03:07:10.289Z,2.90
2023-01-05T03:09:39.195Z,3.40
2023-01-05T03:12:27.613Z,3.13
2023-01-05T03:14:56.392Z,3.73
2023-01-05T03:17:27.596Z,3.23
2023-01-05T03:19:56.303Z,3.13
2023-01-05T03:22:44.455Z,3.40
2023-01-05T03:25:30.925Z,3.00
2023-01-05T03:28:15.869Z,2.80
2023-01-05T03:31:04.404Z,2.27
2023-01-05T03:33:54.409Z,2.77
2023-01-05T03:36:24.053Z,2.70
2023-01-05T03:38:54.484Z,2.73
2023-01-05T03:41:23.359Z,2.50
2023-01-05T03:43:51.373Z,3.13
2023-01-05T03:46:20.005Z,2.87
2023-01-05T03:48:47.987Z,1.97
2023-01-05T03:51:16.148Z,3.20
2023-01-05T03:53:43.511Z,2.80
2023-01-05T03:56:12.229Z,2.87
2023-01-05T03:58:39.630Z,2.90
2023-01-05T04:01:08.582Z,2.47
2023-01-05T04:03:36.171Z,2.70
2023-01-05T04:06:03.577Z,2.37
2023-01-05T04:08:31.291Z,3.20
2023-01-05T04:10:58.622Z,2.00
2023-01-05T04:13:27.307Z,2.60
2023-01-05T04:15:54.724Z,3.03
2023-01-05T04:18:22.089Z,2.23
2023-01-05T04:20:49.396Z,2.93
2023-01-05T04:23:16.734Z,2.53
2023-01-05T04:25:44.064Z,3.00
2023-01-05T04:28:11.417Z,2.90
2023-01-05T04:30:40.177Z,3.03
2023-01-05T04:33:07.512Z,2.83
2023-01-05T04:35:34.855Z,2.63
2023-01-05T04:38:02.160Z,2.87
2023-01-05T04:40:29.494Z,2.97
2023-01-05T04:42:56.804Z,3.60
2023-01-05T04:45:24.455Z,3.30
2023-01-05T04:47:53.602Z,3.40
2023-01-05T04:50:21.055Z,3.60
2023-01-05T04:52:48.361Z,2.80
2023-01-05T04:55:15.763Z,3.20
2023-01-05T04:57:43.120Z,2.93
2023-01-05T05:00:11.223Z,3.30
2023-01-05T05:02:38.598Z,3.00
2023-01-05T05:05:07.700Z,2.97
2023-01-05T05:07:35.010Z,3.27
2023-01-05T05:10:02.475Z,3.60
2023-01-05T05:12:29.792Z,3.40
2023-01-05T05:14:57.129Z,2.97
2023-01-05T05:17:24.451Z,3.00
2023-01-05T05:19:51.777Z,3.03
2023-01-05T05:22:20.461Z,3.00
2023-01-05T05:24:47.810Z,2.70
2023-01-05T05:27:15.154Z,3.03
2023-01-05T05:29:42.482Z,3.33
2023-01-05T05:32:09.832Z,3.27
2023-01-05T05:34:37.176Z,2.93
2023-01-05T05:37:04.560Z,2.87
2023-01-05T05:39:33.220Z,2.63
2023-01-05T05:42:00.616Z,3.00
2023-01-05T05:44:27.952Z,3.00
2023-01-05T05:46:55.298Z,2.73
2023-01-05T05:49:22.696Z,2.80
2023-01-05T05:51:50.014Z,3.10
2023-01-05T05:54:17.461Z,2.90
2023-01-05T05:56:46.118Z,2.87
2023-01-05T05:59:13.477Z,3.07
2023-01-05T06:01:41.522Z,2.70
2023-01-05T06:04:08.969Z,2.73
2023-01-05T06:06:36.321Z,2.93
2023-01-05T06:09:03.769Z,2.80
2023-01-05T06:11:31.122Z,3.23
2023-01-05T06:13:59.974Z,2.77
2023-01-05T06:16:27.353Z,2.83
2023-01-05T06:18:54.775Z,3.60
2023-01-05T06:21:22.237Z,2.60
2023-01-05T06:23:49.639Z,2.20
2023-01-05T06:26:17.027Z,2.60
2023-01-05T06:28:44.378Z,1.93
2023-01-05T06:31:13.320Z,2.60
2023-01-05T06:33:40.725Z,2.13
2023-01-05T06:36:08.437Z,2.63
2023-01-05T06:38:35.824Z,2.10
2023-01-05T06:41:03.139Z,2.40
2023-01-05T06:43:30.579Z,2.73
2023-01-05T06:45:58.006Z,2.37
2023-01-05T06:48:26.671Z,2.10
2023-01-05T06:50:54.072Z,2.17
2023-01-05T06:53:21.411Z,2.10
2023-01-05T06:55:48.775Z,2.60
2023-01-05T06:58:16.147Z,2.40
2023-01-05T07:00:43.571Z,2.17
2023-01-05T07:03:13.218Z,2.50
2023-01-05T07:05:42.147Z,2.27
2023-01-05T07:08:09.611Z,2.40
2023-01-05T07:10:36.988Z,2.37
2023-01-05T07:13:04.349Z,2.60
2023-01-05T07:15:31.650Z,2.80
2023-01-05T07:17:58.974Z,2.47
2023-01-05T07:20:26.332Z,2.70
2023-01-05T07:22:55.004Z,2.47
2023-01-05T07:25:22.363Z,2.73
2023-01-05T07:27:51.057Z,3.03
2023-01-05T07:30:18.490Z,3.03
2023-01-05T07:32:46.142Z,3.17
2023-01-05T07:35:13.457Z,3.57
2023-01-05T07:37:40.956Z,3.27
2023-01-05T07:40:10.545Z,3.37
2023-01-05T07:42:37.901Z,3.80
2023-01-05T07:45:05.736Z,4.40
2023-01-05T07:47:33.370Z,3.67
2023-01-05T07:50:00.815Z,3.83
2023-01-05T07:52:29.830Z,4.53
2023-01-05T07:54:58.292Z,4.63
2023-01-05T07:57:27.045Z,4.00
2023-01-05T07:59:54.382Z,3.90
2023-01-05T08:02:21.786Z,4.37
2023-01-05T08:04:49.282Z,4.00
2023-01-05T08:07:16.654Z,4.00
2023-01-05T08:10:01.401Z,4.00
2023-01-05T08:12:30.881Z,3.60
2023-01-05T08:14:58.505Z,4.00
2023-01-05T08:17:25.819Z,3.90
2023-01-05T08:19:53.177Z,3.47
2023-01-05T08:22:20.515Z,3.57
2023-01-05T08:24:47.881Z,3.70
2023-01-05T08:27:15.283Z,3.30
2023-01-05T08:29:44.019Z,3.30
2023-01-05T08:32:11.449Z,3.00
2023-01-05T08:34:38.881Z,3.17
2023-01-05T08:37:06.215Z,3.10
2023-01-05T08:39:35.829Z,2.80
2023-01-05T08:42:03.230Z,3.07
2023-01-05T08:44:30.585Z,3.60
2023-01-05T08:46:59.218Z,2.83
2023-01-05T08:49:26.583Z,2.50
2023-01-05T08:51:53.975Z,2.47
2023-01-05T08:54:21.315Z,2.63
2023-01-05T08:56:50.574Z,3.03
2023-01-05T08:59:17.963Z,3.87
2023-01-05T09:01:45.574Z,3.23
2023-01-05T09:04:14.442Z,3.23
2023-01-05T09:06:42.280Z,3.20
2023-01-05T09:09:10.386Z,3.17
2023-01-05T09:11:37.701Z,3.00
2023-01-05T09:14:05.060Z,3.37
2023-01-05T09:17:05.066Z,3.07
2023-01-05T09:19:22.851Z,3.07
2023-01-05T09:21:50.186Z,3.57
2023-01-05T09:24:17.532Z,3.40
2023-01-05T09:26:45.232Z,3.07
2023-01-05T09:29:13.241Z,3.30
2023-01-05T09:31:41.202Z,3.13
2023-01-05T09:34:08.602Z,3.00
2023-01-05T09:36:38.619Z,2.90
2023-01-05T09:39:06.331Z,3.00
2023-01-05T09:41:35.135Z,2.80
2023-01-05T09:44:04.080Z,3.03
2023-01-05T09:46:33.551Z,3.07
2023-01-05T09:49:02.292Z,3.73
2023-01-05T09:51:30.352Z,3.60
2023-01-05T09:53:59.967Z,3.23
2023-01-05T09:57:07.264Z,3.50
2023-01-05T09:59:19.700Z,3.20
2023-01-05T10:01:48.975Z,4.60
2023-01-05T10:04:17.764Z,3.10
2023-01-05T10:06:47.010Z,3.23
2023-01-05T10:09:17.181Z,3.07
2023-01-05T10:12:20.343Z,3.30
2023-01-05T10:14:48.944Z,3.20
2023-01-05T10:17:41.072Z,3.00
2023-01-05T10:20:07.782Z,2.87
2023-01-05T10:22:40.610Z,2.87
2023-01-05T10:25:24.573Z,3.20
2023-01-05T10:27:57.133Z,3.00
2023-01-05T10:30:25.311Z,3.17
2023-01-05T10:33:21.891Z,2.57
2023-01-05T10:36:02.697Z,2.40
2023-01-05T10:38:38.678Z,2.73
2023-01-05T10:41:10.685Z,2.40
2023-01-05T10:43:56.881Z,2.63
2023-01-05T10:46:38.342Z,2.60
2023-01-05T10:49:10.064Z,3.07
2023-01-05T10:51:37.506Z,2.80
2023-01-05T10:54:05.990Z,2.90
2023-01-05T10:56:34.667Z,3.30
2023-01-05T10:59:08.447Z,3.00
2023-01-05T11:01:36.345Z,2.73
2023-01-05T11:04:26.885Z,2.57
2023-01-05T11:07:02.865Z,2.63
2023-01-05T11:09:31.255Z,2.97
2023-01-05T11:12:00.905Z,2.77
2023-01-05T11:14:30.071Z,3.30
2023-01-05T11:17:02.524Z,2.70
2023-01-05T11:19:31.251Z,2.90
2023-01-05T11:22:02.211Z,3.03
2023-01-05T11:24:31.286Z,3.70
2023-01-05T11:27:01.460Z,3.23
2023-01-05T11:29:29.067Z,3.30
2023-01-05T11:31:59.361Z,3.30
2023-01-05T11:34:29.156Z,3.40
2023-01-05T11:37:00.172Z,3.20
2023-01-05T11:39:32.450Z,3.20
2023-01-05T11:42:09.759Z,3.13
2023-01-05T11:44:37.621Z,3.20
2023-01-05T11:47:05.887Z,2.87
2023-01-05T11:49:33.637Z,3.60
2023-01-05T11:52:01.026Z,2.90
2023-01-05T11:54:39.244Z,2.60
2023-01-05T11:57:17.930Z,3.07
2023-01-05T11:59:45.936Z,3.13
2023-01-05T12:02:44.001Z,2.60
2023-01-05T12:05:18.745Z,2.80
2023-01-05T12:07:47.887Z,2.73
2023-01-05T12:10:26.670Z,3.20
2023-01-05T12:12:59.125Z,3.20
2023-01-05T12:15:38.339Z,3.40
2023-01-05T12:18:13.448Z,4.13
2023-01-05T12:20:57.702Z,3.37
2023-01-05T12:23:37.741Z,3.77
2023-01-05T12:26:11.471Z,3.60
2023-01-05T12:28:57.908Z,4.10
2023-01-05T12:34:35.667Z,4.27
2023-01-05T12:37:10.860Z,3.50
2023-01-05T12:39:48.926Z,3.10
2023-01-05T12:42:25.479Z,3.83
2023-01-05T12:44:59.634Z,3.83
2023-01-05T12:47:41.897Z,3.83
2023-01-05T12:50:18.429Z,3.87
2023-01-05T12:52:47.649Z,3.57
2023-01-05T12:55:18.030Z,3.60
2023-01-05T12:57:48.779Z,3.60
2023-01-05T13:00:19.166Z,3.47
2023-01-05T13:02:51.384Z,3.90
2023-01-05T13:05:20.503Z,3.80
2023-01-05T13:07:49.059Z,3.10
2023-01-05T13:10:19.830Z,3.83
2023-01-05T13:12:48.268Z,4.13
2023-01-05T13:15:20.563Z,4.13
2023-01-05T13:17:49.374Z,4.13
2023-01-05T13:20:28.038Z,3.97
2023-01-05T13:22:57.384Z,3.67
2023-01-05T13:25:26.094Z,3.83
2023-01-05T13:27:53.397Z,3.83
2023-01-05T13:30:24.338Z,4.13
2023-01-05T13:33:01.995Z,3.63
2023-01-05T13:35:39.784Z,4.00
2023-01-05T13:38:25.700Z,4.03
2023-01-05T13:40:57.528Z,4.80
2023-01-05T13:43:49.014Z,4.40
2023-01-05T13:46:39.222Z,4.77
2023-01-05T13:49:13.379Z,4.47
2023-01-05T13:51:46.859Z,4.77
2023-01-05T13:54:18.128Z,4.53
2023-01-05T13:56:47.162Z,5.10
2023-01-05T13:59:34.483Z,5.00
2023-01-05T14:02:04.749Z,4.70
2023-01-05T14:04:33.517Z,4.53
2023-01-05T14:07:02.480Z,3.80
2023-01-05T14:09:31.049Z,3.87
2023-01-05T14:12:16.885Z,3.93
2023-01-05T14:15:00.380Z,5.00
2023-01-05T14:17:47.087Z,4.00
2023-01-05T14:20:29.329Z,4.20
2023-01-05T14:22:58.440Z,4.17
2023-01-05T14:26:00.366Z,4.53
2023-01-05T14:28:44.435Z,4.60
2023-01-05T14:31:32.767Z,4.20
2023-01-05T14:34:03.337Z,4.27
2023-01-05T14:36:32.289Z,4.10
2023-01-05T14:39:02.605Z,4.10
2023-01-05T14:41:30.749Z,3.80
2023-01-05T14:43:58.944Z,4.23
2023-01-05T14:46:28.102Z,4.67
2023-01-05T14:49:01.529Z,4.23
2023-01-05T14:51:29.860Z,4.53
2023-01-05T14:53:58.164Z,4.93
2023-01-05T14:56:28.093Z,4.70
2023-01-05T14:58:57.226Z,4.87
2023-01-05T15:01:26.396Z,5.13
2023-01-05T15:03:54.634Z,4.90
2023-01-05T15:06:25.218Z,4.73
2023-01-05T15:09:07.467Z,4.60
2023-01-05T15:11:44.357Z,7.47
2023-01-05T15:14:35.704Z,4.40
2023-01-05T15:17:09.237Z,4.50
2023-01-05T15:19:54.300Z,4.43
2023-01-05T15:22:37.996Z,4.40
2023-01-05T15:25:15.690Z,4.80
2023-01-05T15:27:53.775Z,5.20
2023-01-05T15:30:25.388Z,4.60
2023-01-05T15:33:05.823Z,4.33
2023-01-05T15:35:36.379Z,4.00
2023-01-05T15:38:14.054Z,4.47
2023-01-05T15:40:41.611Z,4.33
2023-01-05T15:43:15.909Z,4.43
2023-01-05T15:45:43.846Z,4.63
2023-01-05T15:48:15.014Z,4.50
2023-01-05T15:50:45.652Z,4.37
2023-01-05T15:53:23.760Z,4.77
2023-01-05T15:55:52.004Z,4.47
2023-01-05T15:58:21.160Z,4.80
2023-01-05T16:01:00.789Z,5.13
2023-01-05T16:03:28.989Z,4.13
2023-01-05T16:05:57.416Z,4.17
2023-01-05T16:08:25.120Z,4.63
2023-01-05T16:10:53.398Z,4.30
2023-01-05T16:13:28.703Z,4.43
2023-01-05T16:15:57.302Z,4.47
2023-01-05T16:18:27.024Z,3.83
2023-01-05T16:20:56.168Z,4.20
2023-01-05T16:23:27.149Z,4.20
2023-01-05T16:25:56.492Z,4.77
2023-01-05T16:28:25.624Z,4.50
2023-01-05T16:30:53.780Z,5.23
2023-01-05T16:33:24.801Z,4.90
2023-01-05T16:35:53.580Z,5.13
2023-01-05T16:38:25.719Z,5.70
2023-01-05T16:40:57.198Z,5.87
2023-01-05T16:43:29.261Z,5.13
2023-01-05T16:45:58.393Z,5.80
2023-01-05T16:48:47.982Z,6.17
2023-01-05T16:51:16.054Z,6.60
2023-01-05T16:53:44.843Z,5.40
2023-01-05T16:56:19.229Z,5.90
2023-01-05T16:58:47.965Z,6.07
2023-01-05T17:01:16.196Z,6.10
2023-01-05T17:03:44.187Z,6.40
2023-01-05T17:06:19.090Z,6.00
2023-01-05T17:08:46.478Z,7.60
2023-01-05T17:11:13.886Z,6.50
2023-01-05T17:13:42.443Z,7.50
2023-01-05T17:16:12.618Z,7.00
2023-01-05T17:18:40.601Z,6.93
2023-01-05T17:21:08.583Z,7.77
2023-01-05T17:23:38.250Z,6.70
2023-01-05T17:26:07.101Z,7.10
2023-01-05T17:28:34.669Z,7.00
2023-01-05T17:31:02.045Z,6.13
2023-01-05T17:33:30.752Z,6.90
2023-01-05T17:35:58.134Z,6.57
2023-01-05T17:38:25.616Z,6.63
2023-01-05T17:40:52.973Z,6.67
2023-01-05T17:43:20.323Z,6.20
2023-01-05T17:45:48.161Z,6.50
2023-01-05T17:48:16.323Z,5.83
2023-01-05T17:50:45.989Z,6.27
2023-01-05T17:53:13.324Z,7.07
2023-01-05T17:55:42.750Z,6.70
2023-01-05T17:58:11.796Z,7.17
2023-01-05T18:03:21.556Z,10.47
2023-01-05T18:05:51.139Z,6.50
2023-01-05T18:08:19.259Z,6.23
2023-01-05T18:10:47.635Z,6.93
2023-01-05T18:13:18.164Z,6.20
2023-01-05T18:15:50.433Z,6.00
2023-01-05T18:18:17.995Z,6.67
2023-01-05T18:20:45.380Z,7.30
2023-01-05T18:23:14.047Z,7.30
2023-01-05T18:25:41.418Z,6.60
2023-01-05T18:28:08.816Z,6.80
2023-01-05T18:30:36.434Z,6.53
2023-01-05T18:33:03.819Z,6.07
2023-01-05T18:35:31.202Z,5.93
2023-01-05T18:38:00.913Z,7.03
2023-01-05T18:40:29.745Z,6.20
2023-01-05T18:42:57.208Z,5.57
2023-01-05T18:45:38.284Z,6.33
2023-01-05T18:48:06.558Z,5.87
2023-01-05T18:50:33.948Z,5.67
2023-01-05T18:53:01.317Z,4.90
2023-01-05T18:55:30.163Z,5.57
2023-01-05T18:57:57.509Z,5.00
2023-01-05T19:00:24.815Z,5.73
2023-01-05T19:02:52.172Z,5.60
2023-01-05T19:05:19.570Z,5.70
2023-01-05T19:07:51.080Z,6.40
2023-01-05T19:10:18.560Z,5.67
2023-01-05T19:12:47.213Z,6.40
2023-01-05T19:15:14.570Z,7.70
2023-01-05T19:17:41.962Z,7.40
2023-01-05T19:20:09.793Z,7.60
2023-01-05T19:22:37.331Z,9.00
2023-01-05T19:25:05.487Z,9.27
2023-01-05T19:27:32.875Z,10.73
2023-01-05T19:30:01.576Z,8.20
2023-01-05T19:32:28.917Z,7.17
2023-01-05T19:34:56.252Z,7.23
2023-01-05T19:37:23.656Z,5.63
2023-01-05T19:39:51.038Z,5.47
2023-01-05T19:42:18.364Z,5.00
2023-01-05T19:44:46.666Z,5.23
2023-01-05T19:47:15.348Z,5.37
2023-01-05T19:49:42.691Z,5.00
2023-01-05T19:52:10.125Z,4.97
2023-01-05T19:54:39.227Z,5.63
2023-01-05T19:57:07.006Z,6.40
2023-01-05T19:59:34.321Z,6.27
2023-01-05T20:02:02.420Z,7.10
2023-01-05T20:04:31.281Z,6.03
2023-01-05T20:06:58.802Z,5.50
2023-01-05T20:09:26.145Z,5.53
2023-01-05T20:11:59.396Z,5.43
2023-01-05T20:14:34.242Z,5.43
2023-01-05T20:17:02.479Z,8.27
2023-01-05T20:19:31.847Z,7.13
2023-01-05T20:22:00.195Z,7.07
2023-01-05T20:24:29.047Z,7.63
2023-01-05T20:26:58.038Z,7.03
2023-01-05T20:29:25.806Z,6.73
2023-01-05T20:31:54.954Z,6.97
2023-01-05T20:34:23.767Z,5.83
2023-01-05T20:36:52.455Z,5.60
2023-01-05T20:39:22.067Z,6.43
2023-01-05T20:41:50.515Z,5.70
2023-01-05T20:44:19.635Z,4.67
2023-01-05T20:46:48.609Z,5.40
2023-01-05T20:49:16.516Z,5.40
2023-01-05T20:51:43.895Z,5.50
2023-01-05T20:54:12.837Z,5.20
2023-01-05T20:56:41.696Z,5.63
2023-01-05T20:59:10.804Z,5.30
2023-01-05T21:01:38.366Z,5.30
2023-01-05T21:04:06.832Z,5.30
2023-01-05T21:06:34.434Z,5.73
2023-01-05T21:09:02.154Z,5.40
2023-01-05T21:11:30.876Z,5.53
2023-01-05T21:13:58.602Z,5.53
2023-01-05T21:16:27.207Z,5.27
2023-01-05T21:18:55.111Z,6.43
2023-01-05T21:21:23.518Z,6.00
2023-01-05T21:23:51.720Z,5.80
2023-01-05T21:26:19.372Z,5.30
2023-01-05T21:28:48.502Z,5.80
2023-01-05T21:31:17.257Z,5.50
2023-01-05T21:33:44.977Z,5.93
2023-01-05T21:36:14.293Z,5.73
2023-01-05T21:39:00.771Z,5.03
2023-01-05T21:41:47.502Z,6.13
2023-01-05T21:44:16.672Z,5.17
2023-01-05T21:46:44.069Z,5.40
2023-01-05T21:49:11.787Z,5.90
2023-01-05T21:51:56.977Z,5.87
2023-01-05T21:54:41.749Z,5.23
2023-01-05T21:57:09.291Z,5.40
2023-01-05T21:59:37.984Z,5.37
2023-01-05T22:02:05.327Z,5.47
2023-01-05T22:04:32.690Z,5.43
2023-01-05T22:07:00.130Z,4.80
2023-01-05T22:09:27.445Z,5.37
2023-01-05T22:11:54.809Z,5.33
2023-01-05T22:14:22.140Z,5.80
2023-01-05T22:16:50.808Z,5.27
2023-01-05T22:19:19.145Z,5.33
2023-01-05T22:21:46.491Z,5.23
2023-01-05T22:24:14.155Z,5.10
2023-01-05T22:26:41.503Z,5.33
2023-01-05T22:29:08.853Z,4.97
2023-01-05T22:31:36.506Z,5.20
2023-01-05T22:34:05.343Z,4.97
2023-01-05T22:36:32.890Z,5.17
2023-01-05T22:39:00.643Z,5.70
2023-01-05T22:41:29.758Z,5.20
2023-01-05T22:43:57.475Z,5.07
2023-01-05T22:46:25.522Z,4.90
2023-01-05T22:48:53.697Z,4.97
2023-01-05T22:51:23.177Z,5.00
2023-01-05T22:53:51.108Z,4.83
2023-01-05T22:56:19.395Z,4.90
2023-01-05T22:58:46.778Z,4.37
2023-01-05T23:01:15.251Z,4.43
2023-01-05T23:03:42.718Z,4.57
2023-01-05T23:06:10.672Z,4.50
2023-01-05T23:08:40.135Z,4.30
2023-01-05T23:11:08.481Z,4.40
2023-01-05T23:13:35.844Z,4.30
2023-01-05T23:16:03.333Z,4.37
2023-01-05T23:18:30.764Z,4.20
2023-01-05T23:20:59.630Z,4.20
2023-01-05T23:23:27.918Z,4.00
2023-01-05T23:25:56.574Z,4.27
2023-01-05T23:28:25.047Z,3.70
2023-01-05T23:30:53.667Z,4.70
2023-01-05T23:33:22.205Z,4.27
2023-01-05T23:35:51.033Z,3.37
2023-01-05T23:38:18.760Z,3.53
2023-01-05T23:40:47.392Z,3.90
2023-01-05T23:43:18.029Z,3.30
2023-01-05T23:45:45.760Z,3.30
2023-01-05T23:48:13.636Z,3.10
2023-01-05T23:50:42.156Z,2.70
2023-01-05T23:53:09.710Z,2.50
2023-01-05T23:55:37.345Z,2.73
2023-01-05T23:58:04.667Z,2.80
